Terminal Aerodrome Forecast
Issued by NWS

Home | Current Version | Previous Version | Text Only | Print | Product List | Glossary On
Versions: 1 2 3 4 5 6 7 8 9 10 11 12 13 14 15 16 17 18 19 20 21 22 23 24 25 26 27 28 29 30 31 32
000
FTUS41 KBUF 172300
TAFJHW
TAF
KJHW 172336Z 1800/1824 16012KT P6SM SCT200
     FM181500 19013KT P6SM BKN050
     FM181900 23011KT P6SM BKN045
     FM182100 27010KT P6SM BKN045
      AMD LTD TO CLD VIS AND WIND=

USA.gov is the U.S. government's official web portal to all federal, state and local government web resources and services.